Tulip, Indiana
Current Conditions -  °F | °C
As of 6:53 AM on Monday 26 Jan 2015 (Local Time) from KBMG Reporting Station
Overcast Overcast  
Wind Chill: 17°   Ceiling: 2400
Heat Index: 24°   Visibility: 10mi
Dew Point: 17°   Wind: 6mph
Humidity: 75%   Direction: 350°N
Pressure: 29.92"   Gusts: NA
Location:  39.0306°N, 86.8553°W
Report Text: KBMG 261153Z 35005KT 10SM OVC024 M04/M08 A2992 RMK AO2 SLP139 70010 T10441083 11039 21050 53007
Loading
Personal Weather Stations






























Interactive Weather Map New forecast layout! Learn more

10-Day Weather Forecast

Advertisements
Track Severe Weather on mobile